Time;durP1;ratioP1;P1;durP2;ratioP2;P2;SDS_P1;SDS_P2;PMS_P1;PMS_P2;Temp;Humidity;BMP_temperature;BMP_pressure;BME280_temperature;BME280_humidity;BME280_pressure;Samples;Min_cycle;Max_cycle;Signal;HPM_P1;HPM_P2
2022/09/07 00:01:55;;;;;;;4.20;2.28;;;17.20;88.00;;;;;;5030937;28;20028;-77
2022/09/07 00:04:21;;;;;;;3.80;2.30;;;17.20;88.00;;;;;;5042514;28;20445;-77
2022/09/07 00:06:46;;;;;;;3.47;2.00;;;17.20;87.90;;;;;;5048047;28;20120;-77
2022/09/07 00:09:12;;;;;;;2.85;1.95;;;17.10;88.00;;;;;;5033228;28;20048;-77
2022/09/07 00:11:38;;;;;;;4.65;2.17;;;17.20;88.10;;;;;;5032313;28;20107;-76
2022/09/07 00:14:04;;;;;;;4.20;1.92;;;17.10;88.20;;;;;;5008403;28;20029;-77
2022/09/07 00:16:30;;;;;;;3.45;1.92;;;17.20;88.20;;;;;;5031735;28;20025;-77
2022/09/07 00:18:58;;;;;;;5.30;2.05;;;17.10;88.30;;;;;;5029139;28;20094;-76
2022/09/07 00:21:25;;;;;;;5.32;2.10;;;17.20;88.50;;;;;;5049758;28;20025;-77
2022/09/07 00:23:51;;;;;;;3.85;2.28;;;17.20;88.40;;;;;;5035427;28;20029;-76
2022/09/07 00:26:25;;;;;;;6.47;2.60;;;17.10;88.40;;;;;;5030883;28;20032;-77
2022/09/07 00:28:55;;;;;;;7.15;2.35;;;17.10;88.40;;;;;;5052509;28;20028;-77
2022/09/07 00:31:22;;;;;;;7.30;2.38;;;17.10;88.40;;;;;;5018178;28;20032;-77
2022/09/07 00:33:50;;;;;;;7.88;2.42;;;17.10;88.40;;;;;;5056848;28;20060;-77
2022/09/07 00:36:17;;;;;;;4.20;2.35;;;17.00;88.70;;;;;;5052488;28;20020;-78
2022/09/07 00:38:43;;;;;;;4.05;2.00;;;17.10;88.70;;;;;;5036238;28;20037;-77
2022/09/07 00:41:10;;;;;;;5.22;1.85;;;17.00;88.70;;;;;;5028687;28;20059;-77
2022/09/07 00:43:46;;;;;;;2.03;1.80;;;17.00;88.70;;;;;;5057078;28;20017;-76
2022/09/07 00:46:16;;;;;;;8.38;2.10;;;17.10;88.80;;;;;;5031349;28;20124;-76
2022/09/07 00:48:49;;;;;;;4.07;2.22;;;17.00;88.60;;;;;;5030265;28;20033;-78
2022/09/07 00:51:27;;;;;;;10.82;2.20;;;17.00;88.80;;;;;;5047955;28;20174;-77
2022/09/07 00:54:00;;;;;;;4.22;2.20;;;17.10;88.80;;;;;;5053577;28;20041;-76
2022/09/07 00:56:30;;;;;;;5.82;2.15;;;17.00;88.50;;;;;;5018620;28;20049;-76
2022/09/07 00:58:57;;;;;;;4.07;2.35;;;17.00;88.50;;;;;;5016479;28;20397;-76
2022/09/07 01:01:23;;;;;;;4.53;2.20;;;17.00;88.50;;;;;;5027542;28;20041;-77
2022/09/07 01:03:51;;;;;;;3.40;1.83;;;17.10;88.80;;;;;;5046473;28;20044;-77
2022/09/07 01:06:32;;;;;;;3.22;2.38;;;17.00;88.70;;;;;;5046099;28;20028;-75
2022/09/07 01:09:10;;;;;;;4.00;2.15;;;17.10;88.80;;;;;;5009849;28;20048;-75
2022/09/07 01:11:37;;;;;;;3.67;2.10;;;17.00;88.70;;;;;;5028623;28;20443;-76
2022/09/07 01:14:07;;;;;;;5.05;2.20;;;17.00;88.60;;;;;;5047614;28;20515;-76
2022/09/07 01:16:42;;;;;;;6.07;2.30;;;17.00;88.60;;;;;;5030254;28;20084;-75
2022/09/07 01:19:30;;;;;;;4.85;2.55;;;17.00;88.80;;;;;;5030011;28;20024;-77
2022/09/07 01:22:28;;;;;;;2.55;1.98;;;17.00;88.70;;;;;;5025485;28;20061;-75
2022/09/07 01:25:21;;;;;;;3.30;1.90;;;17.00;88.70;;;;;;4960675;28;20495;-75
2022/09/07 01:28:28;;;;;;;3.75;2.05;;;17.10;88.80;;;;;;5063960;28;20027;-81
2022/09/07 01:31:03;;;;;;;7.93;2.38;;;17.10;88.70;;;;;;5028213;28;20423;-76
2022/09/07 01:33:50;;;;;;;3.28;2.10;;;17.00;88.80;;;;;;5047384;28;20036;-75
2022/09/07 01:36:20;;;;;;;2.70;2.33;;;17.10;88.70;;;;;;5028815;28;20061;-76
2022/09/07 01:38:56;;;;;;;7.13;2.78;;;17.10;88.50;;;;;;5025091;28;20040;-76
2022/09/07 01:41:37;;;;;;;3.50;2.10;;;17.00;88.20;;;;;;5029966;28;20021;-76
2022/09/07 01:44:36;;;;;;;3.65;2.08;;;17.10;88.60;;;;;;5031500;28;20167;-76
2022/09/07 01:47:02;;;;;;;5.25;2.17;;;17.10;88.40;;;;;;5035199;28;20028;-76
2022/09/07 01:49:51;;;;;;;2.60;1.88;;;17.00;88.50;;;;;;5050414;28;20128;-76
2022/09/07 01:52:36;;;;;;;5.93;2.53;;;17.00;88.50;;;;;;5030558;28;20087;-76
2022/09/07 01:55:12;;;;;;;3.05;2.22;;;17.00;88.50;;;;;;5025380;28;20029;-76
2022/09/07 01:58:01;;;;;;;6.63;2.10;;;17.00;88.50;;;;;;5021448;28;20028;-76
2022/09/07 02:00:27;;;;;;;3.08;2.20;;;17.10;88.80;;;;;;5025607;28;20112;-76
2022/09/07 02:03:12;;;;;;;2.92;1.98;;;17.00;88.60;;;;;;5015241;28;20107;-76
2022/09/07 02:05:48;;;;;;;4.43;2.47;;;17.00;88.40;;;;;;5042364;28;20027;-76
2022/09/07 02:08:39;;;;;;;2.53;1.92;;;17.00;88.40;;;;;;5040810;28;20408;-76
2022/09/07 02:11:23;;;;;;;8.55;2.60;;;17.00;88.40;;;;;;5028370;28;20044;-76
2022/09/07 02:14:04;;;;;;;6.18;2.45;;;17.00;88.20;;;;;;5010729;28;20075;-77
2022/09/07 02:16:32;;;;;;;;;;;17.00;88.30;;;;;;5023786;28;20459;-77
2022/09/07 02:19:10;;;;;;;7.60;2.30;;;17.00;88.40;;;;;;5045943;28;19912;-77
2022/09/07 02:21:44;;;;;;;4.97;2.42;;;17.00;88.30;;;;;;5029442;28;20029;-77
2022/09/07 02:24:15;;;;;;;4.55;2.42;;;17.00;88.40;;;;;;5047503;28;20052;-77
2022/09/07 02:26:47;;;;;;;4.25;1.98;;;17.00;88.30;;;;;;5047616;28;20095;-76
2022/09/07 02:29:13;;;;;;;3.20;1.95;;;17.00;88.40;;;;;;5042238;28;20051;-77
2022/09/07 02:31:38;;;;;;;5.40;2.28;;;17.00;88.70;;;;;;5029064;28;20057;-76
2022/09/07 02:34:04;;;;;;;4.20;2.50;;;17.00;88.30;;;;;;5028418;28;20505;-76
2022/09/07 02:36:36;;;;;;;4.40;2.30;;;17.00;88.70;;;;;;5026839;28;20408;-76
2022/09/07 02:39:02;;;;;;;4.60;2.38;;;17.00;88.80;;;;;;5028324;28;20104;-75
2022/09/07 02:41:35;;;;;;;5.57;2.35;;;17.00;88.70;;;;;;5013397;28;20033;-76
2022/09/07 02:44:07;;;;;;;5.45;2.33;;;16.90;88.60;;;;;;5044262;28;20036;-77
2022/09/07 02:47:02;;;;;;;4.70;2.72;;;16.90;88.60;;;;;;5025021;28;20072;-75
2022/09/07 02:49:50;;;;;;;4.93;2.70;;;16.90;88.60;;;;;;4945654;28;20069;-76
2022/09/07 02:52:24;;;;;;;4.10;2.17;;;16.90;88.80;;;;;;5027465;28;20032;-77
2022/09/07 02:55:35;;;;;;;3.42;2.10;;;16.90;88.80;;;;;;5044708;28;20033;-77
2022/09/07 02:58:37;;;;;;;5.63;2.35;;;16.90;88.90;;;;;;4981512;28;20027;-77
2022/09/07 03:01:15;;;;;;;5.15;2.58;;;16.90;88.90;;;;;;4963892;28;20053;-76
2022/09/07 03:04:03;;;;;;;6.38;2.45;;;16.90;89.20;;;;;;5013185;28;20171;-77
2022/09/07 03:06:40;;;;;;;4.80;2.63;;;16.90;89.00;;;;;;5048411;28;20029;-76
2022/09/07 03:09:13;;;;;;;4.68;2.28;;;16.90;88.90;;;;;;5027634;28;20028;-76
2022/09/07 03:11:39;;;;;;;4.03;2.50;;;16.90;89.00;;;;;;5011545;28;20029;-77
2022/09/07 03:14:20;;;;;;;4.28;2.78;;;16.90;89.20;;;;;;5050969;28;20048;-75
2022/09/07 03:16:49;;;;;;;4.43;2.65;;;16.90;89.00;;;;;;5033293;28;20029;-76
2022/09/07 03:19:14;;;;;;;5.25;2.50;;;16.80;88.90;;;;;;5011215;28;20565;-76
2022/09/07 03:21:40;;;;;;;4.47;2.53;;;16.80;89.10;;;;;;5029708;28;20115;-76
2022/09/07 03:24:06;;;;;;;5.05;2.60;;;16.80;89.10;;;;;;5016145;28;20033;-78
2022/09/07 03:26:32;;;;;;;3.95;2.42;;;16.80;89.10;;;;;;5044834;28;20072;-80
2022/09/07 03:28:58;;;;;;;3.97;2.65;;;16.80;89.30;;;;;;5047100;28;20044;-77
2022/09/07 03:31:24;;;;;;;7.32;3.03;;;16.80;89.20;;;;;;5029158;28;20028;-77
2022/09/07 03:33:50;;;;;;;3.47;2.60;;;16.80;89.20;;;;;;5048609;28;20049;-77
2022/09/07 03:36:16;;;;;;;3.83;2.40;;;16.80;89.30;;;;;;5029712;28;20424;-77
2022/09/07 03:38:41;;;;;;;4.63;2.55;;;16.90;89.20;;;;;;5011050;28;20029;-77
2022/09/07 03:41:07;;;;;;;3.83;2.65;;;16.80;89.20;;;;;;5049943;28;20064;-78
2022/09/07 03:43:33;;;;;;;4.97;2.90;;;16.80;89.10;;;;;;5015324;28;20038;-77
2022/09/07 03:46:02;;;;;;;6.85;2.90;;;16.80;89.10;;;;;;5051223;28;20192;-77
2022/09/07 03:48:33;;;;;;;5.25;2.65;;;16.80;89.30;;;;;;5032872;28;20052;-76
2022/09/07 03:51:00;;;;;;;6.20;2.90;;;16.80;89.30;;;;;;5035591;28;20040;-76
2022/09/07 03:53:26;;;;;;;5.32;2.88;;;16.80;89.10;;;;;;5049789;28;20468;-77
2022/09/07 03:56:00;;;;;;;3.97;2.47;;;16.80;89.40;;;;;;5051768;28;20047;-76
2022/09/07 03:58:30;;;;;;;5.88;2.70;;;16.80;89.30;;;;;;5021023;28;20033;-78
2022/09/07 04:00:57;;;;;;;4.38;2.42;;;16.80;89.40;;;;;;5046783;28;20041;-76
2022/09/07 04:03:23;;;;;;;5.65;3.13;;;16.80;89.60;;;;;;5049016;28;20161;-76
2022/09/07 04:05:49;;;;;;;4.05;2.92;;;16.70;89.50;;;;;;5019229;28;20047;-77
2022/09/07 04:08:14;;;;;;;6.93;3.20;;;16.70;89.40;;;;;;5049825;28;20029;-77
2022/09/07 04:10:40;;;;;;;5.20;2.80;;;16.70;89.30;;;;;;5032807;28;20382;-77
2022/09/07 04:13:07;;;;;;;4.40;3.20;;;16.70;89.30;;;;;;5035546;28;20021;-78
2022/09/07 04:15:33;;;;;;;6.25;2.60;;;16.80;89.20;;;;;;5038394;28;20179;-78
2022/09/07 04:17:59;;;;;;;5.15;2.90;;;16.70;89.10;;;;;;5018858;28;20039;-77
2022/09/07 04:20:25;;;;;;;4.82;2.65;;;16.70;89.40;;;;;;5012740;28;20024;-77
2022/09/07 04:22:51;;;;;;;14.10;3.10;;;16.80;89.30;;;;;;5033161;28;20029;-77
2022/09/07 04:25:17;;;;;;;4.32;2.83;;;16.70;89.40;;;;;;5047989;28;20208;-77
2022/09/07 04:27:44;;;;;;;4.43;2.42;;;16.70;89.40;;;;;;5030832;28;20029;-77
2022/09/07 04:30:10;;;;;;;6.22;2.88;;;16.70;89.30;;;;;;5015502;28;20021;-77
2022/09/07 04:32:36;;;;;;;4.95;3.17;;;16.70;89.30;;;;;;5030542;28;20100;-77
2022/09/07 04:35:02;;;;;;;5.50;2.67;;;16.70;89.20;;;;;;5028723;28;20028;-76
2022/09/07 04:37:29;;;;;;;6.72;3.10;;;16.70;89.10;;;;;;5044372;28;20025;-76
2022/09/07 04:39:54;;;;;;;3.58;2.75;;;16.70;89.10;;;;;;5048426;28;20123;-76
2022/09/07 04:42:20;;;;;;;7.85;2.83;;;16.70;89.60;;;;;;5034296;28;20088;-76
2022/09/07 04:44:48;;;;;;;3.60;2.65;;;16.70;89.40;;;;;;5036668;28;20029;-76
2022/09/07 04:47:14;;;;;;;6.85;2.80;;;16.70;89.30;;;;;;5049818;28;20021;-76
2022/09/07 04:49:40;;;;;;;5.68;2.88;;;16.60;89.70;;;;;;5032795;28;20416;-77
2022/09/07 04:52:07;;;;;;;5.55;3.30;;;16.60;89.50;;;;;;5044804;28;20044;-76
2022/09/07 04:54:32;;;;;;;7.32;3.10;;;16.60;89.60;;;;;;5030616;28;20037;-76
2022/09/07 04:56:58;;;;;;;4.13;3.05;;;16.60;89.70;;;;;;5032479;28;20109;-78
2022/09/07 04:59:24;;;;;;;3.60;1.90;;;16.60;89.50;;;;;;5014263;28;20032;-76
2022/09/07 05:01:50;;;;;;;8.88;2.97;;;16.90;91.20;;;;;;5013391;28;20066;-76
2022/09/07 05:04:15;;;;;;;5.57;3.05;;;16.90;89.80;;;;;;5017212;28;20032;-78
2022/09/07 05:06:41;;;;;;;9.30;3.97;;;16.90;89.10;;;;;;5032294;28;20128;-75
2022/09/07 05:09:07;;;;;;;12.07;3.50;;;16.90;89.10;;;;;;5028811;28;20083;-75
2022/09/07 05:11:33;;;;;;;7.38;3.97;;;16.90;89.30;;;;;;5048919;28;20029;-75
2022/09/07 05:14:00;;;;;;;5.38;2.88;;;16.90;89.40;;;;;;5016622;28;20063;-76
2022/09/07 05:16:28;;;;;;;7.30;3.70;;;16.90;89.90;;;;;;5012950;28;20110;-77
2022/09/07 05:19:00;;;;;;;7.03;3.20;;;16.90;89.50;;;;;;5014190;28;20033;-77
2022/09/07 05:21:28;;;;;;;6.38;3.58;;;16.90;89.50;;;;;;5035142;28;20041;-77
2022/09/07 05:23:56;;;;;;;6.25;3.65;;;16.90;89.60;;;;;;5032030;28;20048;-76
2022/09/07 05:26:23;;;;;;;5.75;3.25;;;16.90;89.80;;;;;;5029042;28;20030;-76
2022/09/07 05:28:49;;;;;;;7.13;3.83;;;16.90;89.50;;;;;;5028444;28;20081;-79
2022/09/07 05:31:17;;;;;;;8.63;3.55;;;17.00;89.70;;;;;;5047769;28;20069;-77
2022/09/07 05:33:47;;;;;;;5.93;3.80;;;17.00;89.60;;;;;;5030298;28;20029;-77
2022/09/07 05:36:15;;;;;;;8.80;3.50;;;17.00;89.70;;;;;;5029821;28;20052;-76
2022/09/07 05:38:41;;;;;;;4.97;3.05;;;17.00;89.80;;;;;;5027636;28;20032;-75
2022/09/07 05:41:18;;;;;;;7.05;3.47;;;16.90;89.70;;;;;;5043734;28;20114;-77
2022/09/07 05:43:44;;;;;;;8.75;3.70;;;16.90;90.00;;;;;;5026305;28;20029;-75
2022/09/07 05:46:11;;;;;;;5.47;3.45;;;16.90;89.80;;;;;;5041655;28;20033;-76
2022/09/07 05:48:39;;;;;;;6.45;3.70;;;16.90;90.00;;;;;;5027336;28;20025;-76
2022/09/07 05:51:05;;;;;;;6.47;3.45;;;16.90;90.10;;;;;;5025108;28;20028;-76
2022/09/07 05:53:37;;;;;;;6.50;3.33;;;16.90;90.30;;;;;;5027714;28;20040;-76
2022/09/07 05:56:04;;;;;;;6.45;3.50;;;16.90;90.30;;;;;;5024477;28;20513;-74
2022/09/07 05:58:31;;;;;;;9.80;3.45;;;16.90;90.20;;;;;;5026422;28;20692;-73
2022/09/07 06:01:08;;;;;;;5.97;2.92;;;16.90;90.20;;;;;;5026817;28;20044;-75
2022/09/07 06:03:35;;;;;;;7.03;3.42;;;16.90;90.20;;;;;;5045407;28;20036;-74
2022/09/07 06:06:06;;;;;;;8.35;3.58;;;16.90;90.40;;;;;;5039498;28;20028;-74
2022/09/07 06:08:34;;;;;;;7.13;3.28;;;16.80;90.40;;;;;;5045661;28;20033;-75
2022/09/07 06:11:11;;;;;;;5.53;3.83;;;16.80;90.50;;;;;;5044467;28;20028;-75
2022/09/07 06:13:38;;;;;;;8.48;3.72;;;16.80;90.50;;;;;;5034188;28;20392;-74
2022/09/07 06:16:07;;;;;;;6.00;3.30;;;16.80;90.60;;;;;;5031239;28;20033;-75
2022/09/07 06:18:38;;;;;;;6.28;3.60;;;16.80;90.70;;;;;;5024010;28;20064;-76
2022/09/07 06:21:06;;;;;;;6.55;3.80;;;16.90;90.60;;;;;;5042323;28;20100;-75
2022/09/07 06:23:32;;;;;;;8.02;3.92;;;16.90;90.50;;;;;;5011161;28;20035;-75
2022/09/07 06:25:58;;;;;;;7.30;4.07;;;16.90;90.90;;;;;;5028304;28;20021;-73
2022/09/07 06:28:35;;;;;;;7.03;3.97;;;16.90;91.10;;;;;;5029962;28;20024;-77
2022/09/07 06:31:07;;;;;;;13.18;4.53;;;16.90;91.70;;;;;;5030107;28;20028;-76
2022/09/07 06:33:34;;;;;;;16.75;4.38;;;16.80;92.10;;;;;;5030388;28;20032;-73
2022/09/07 06:36:06;;;;;;;7.60;4.45;;;16.80;92.40;;;;;;5041844;28;20115;-80
2022/09/07 06:38:38;;;;;;;10.18;4.40;;;16.80;93.00;;;;;;5009029;28;20613;-74
2022/09/07 06:41:07;;;;;;;9.27;5.22;;;16.70;93.80;;;;;;5044460;28;20037;-75
2022/09/07 06:43:33;;;;;;;14.32;5.20;;;16.70;94.00;;;;;;5048070;28;20157;-74
2022/09/07 06:45:59;;;;;;;8.52;4.93;;;16.60;95.00;;;;;;5044122;28;20025;-69
2022/09/07 06:48:25;;;;;;;17.92;5.40;;;16.50;95.50;;;;;;5045410;28;20503;-75
2022/09/07 06:51:00;;;;;;;8.75;4.90;;;16.50;96.00;;;;;;5042662;28;20035;-73
2022/09/07 06:53:28;;;;;;;11.88;5.25;;;16.40;96.80;;;;;;5012987;28;20374;-74
2022/09/07 06:55:54;;;;;;;12.23;5.22;;;16.40;97.10;;;;;;5043654;28;20029;-74
2022/09/07 06:58:21;;;;;;;8.90;5.35;;;16.40;97.10;;;;;;5045842;28;20048;-75
2022/09/07 07:00:47;;;;;;;7.95;5.30;;;16.40;97.70;;;;;;5024532;28;20430;-74
2022/09/07 07:03:13;;;;;;;8.10;5.10;;;16.30;98.20;;;;;;5050548;28;20033;-75
2022/09/07 07:05:39;;;;;;;12.60;5.70;;;16.30;98.70;;;;;;5028037;28;20494;-75
2022/09/07 07:08:04;;;;;;;9.25;5.90;;;16.30;99.20;;;;;;5046592;28;20136;-75
2022/09/07 07:10:30;;;;;;;10.70;5.55;;;16.20;99.90;;;;;;5040954;28;20094;-75
2022/09/07 07:12:56;;;;;;;12.38;5.40;;;16.20;99.90;;;;;;5028604;28;20139;-74
2022/09/07 07:15:24;;;;;;;8.48;4.78;;;16.20;99.90;;;;;;5032731;28;20056;-75
2022/09/07 07:17:50;;;;;;;8.65;5.63;;;16.20;99.90;;;;;;5030345;28;20037;-74
2022/09/07 07:20:16;;;;;;;10.70;5.72;;;16.20;99.90;;;;;;5026243;28;20120;-74
2022/09/07 07:22:42;;;;;;;8.95;6.25;;;16.10;99.90;;;;;;5045113;28;20085;-75
2022/09/07 07:25:07;;;;;;;9.10;5.88;;;16.00;99.90;;;;;;5029751;28;20056;-75
2022/09/07 07:27:33;;;;;;;19.40;6.70;;;15.90;99.90;;;;;;5032376;28;20025;-79
2022/09/07 07:29:59;;;;;;;14.32;6.72;;;15.90;99.90;;;;;;5033027;28;20092;-75
2022/09/07 07:32:24;;;;;;;8.80;5.90;;;15.90;99.90;;;;;;5049521;28;20037;-75
2022/09/07 07:34:50;;;;;;;8.90;6.13;;;15.80;99.90;;;;;;5011457;28;20413;-74
2022/09/07 07:37:16;;;;;;;9.95;6.75;;;15.80;99.90;;;;;;5032492;28;20063;-75
2022/09/07 07:39:43;;;;;;;12.70;6.68;;;15.80;99.90;;;;;;5032674;28;20025;-75
2022/09/07 07:42:08;;;;;;;7.50;5.90;;;15.70;99.90;;;;;;5049769;28;20082;-75
2022/09/07 07:44:34;;;;;;;9.10;6.40;;;15.70;99.90;;;;;;5050412;28;20396;-75
2022/09/07 07:47:00;;;;;;;8.95;6.40;;;15.60;99.90;;;;;;5034780;28;20036;-75
2022/09/07 07:49:25;;;;;;;12.45;6.70;;;15.60;99.90;;;;;;5031815;28;20028;-74
2022/09/07 07:51:54;;;;;;;13.98;7.32;;;15.60;99.90;;;;;;5050927;28;20032;-74
2022/09/07 07:54:20;;;;;;;13.30;6.30;;;15.60;99.90;;;;;;5028110;28;20040;-73
2022/09/07 07:56:46;;;;;;;9.55;6.70;;;15.50;99.90;;;;;;5052037;28;20393;-74
2022/09/07 07:59:11;;;;;;;10.60;6.47;;;15.50;99.90;;;;;;5028451;28;20021;-75
2022/09/07 08:01:37;;;;;;;7.95;5.57;;;15.50;99.90;;;;;;5033296;28;20036;-76
2022/09/07 08:04:03;;;;;;;7.93;5.82;;;15.40;99.90;;;;;;5054037;28;20028;-74
2022/09/07 08:06:29;;;;;;;10.23;6.82;;;15.40;99.90;;;;;;5049917;28;20509;-74
2022/09/07 08:08:54;;;;;;;10.45;5.55;;;15.40;99.90;;;;;;5014749;28;20021;-74
2022/09/07 08:11:21;;;;;;;9.85;5.82;;;15.30;99.90;;;;;;5047271;28;20064;-74
2022/09/07 08:13:48;;;;;;;7.75;5.75;;;15.30;99.90;;;;;;5031799;28;20021;-74
2022/09/07 08:16:16;;;;;;;9.40;6.63;;;15.40;99.90;;;;;;5035450;28;20107;-74
2022/09/07 08:18:42;;;;;;;8.57;6.15;;;15.40;99.90;;;;;;5050217;28;20489;-74
2022/09/07 08:21:12;;;;;;;8.73;6.30;;;15.30;99.90;;;;;;5050812;28;20689;-74
2022/09/07 08:23:39;;;;;;;11.60;6.15;;;15.40;99.90;;;;;;5029787;28;20503;-74
2022/09/07 08:26:06;;;;;;;15.88;6.00;;;15.40;99.90;;;;;;5031507;28;20033;-74
2022/09/07 08:28:35;;;;;;;10.10;5.68;;;15.40;99.90;;;;;;5048556;28;20377;-74
2022/09/07 08:31:05;;;;;;;20.10;6.05;;;15.40;99.90;;;;;;5045442;28;20102;-74
2022/09/07 08:33:31;;;;;;;10.45;6.28;;;15.40;99.90;;;;;;5037619;28;20153;-74
2022/09/07 08:36:06;;;;;;;7.47;5.28;;;15.50;99.90;;;;;;5027710;28;20041;-73
2022/09/07 08:38:34;;;;;;;8.20;5.57;;;15.40;99.90;;;;;;5033162;28;20480;-74
2022/09/07 08:41:01;;;;;;;9.25;5.70;;;15.40;99.90;;;;;;5035425;28;20090;-75
2022/09/07 08:43:44;;;;;;;10.50;5.85;;;15.50;99.90;;;;;;5031809;28;21073;-74
2022/09/07 08:46:18;;;;;;;12.63;5.68;;;15.50;99.90;;;;;;5031834;28;20047;-73
2022/09/07 08:48:45;;;;;;;10.55;5.80;;;15.60;99.90;;;;;;5043908;28;20575;-74
2022/09/07 08:51:24;;;;;;;13.48;6.35;;;15.60;99.90;;;;;;5050820;28;20028;-74
2022/09/07 08:53:51;;;;;;;10.57;5.82;;;15.70;99.90;;;;;;5030799;28;20040;-74
2022/09/07 08:56:30;;;;;;;11.50;5.82;;;15.80;99.90;;;;;;5010209;28;20025;-73
2022/09/07 08:58:57;;;;;;;10.70;5.55;;;15.80;99.90;;;;;;5036387;28;20029;-74
2022/09/07 09:01:38;;;;;;;8.27;5.22;;;15.80;99.90;;;;;;5029572;28;20050;-74
2022/09/07 09:04:11;;;;;;;9.32;5.60;;;15.90;99.90;;;;;;5050118;28;20401;-74
2022/09/07 09:07:02;;;;;;;7.18;5.88;;;15.90;99.90;;;;;;5049174;28;20102;-77
2022/09/07 09:09:59;;;;;;;13.68;5.80;;;15.90;99.90;;;;;;5045189;28;20290;-74
2022/09/07 09:12:51;;;;;;;10.48;5.65;;;15.90;99.90;;;;;;5050692;28;20044;-74
2022/09/07 09:15:25;;;;;;;7.60;5.15;;;15.90;99.90;;;;;;5049185;28;20082;-74
2022/09/07 09:18:15;;;;;;;8.57;5.18;;;15.90;99.90;;;;;;5042644;28;20199;-74
2022/09/07 09:20:52;;;;;;;12.80;6.07;;;16.00;99.90;;;;;;5048279;28;20400;-74
2022/09/07 09:23:25;;;;;;;15.15;6.45;;;16.10;99.90;;;;;;5044420;28;20112;-73
2022/09/07 09:25:56;;;;;;;10.52;6.00;;;16.20;99.90;;;;;;5029887;28;20021;-73
2022/09/07 09:28:22;;;;;;;16.88;6.47;;;16.40;99.90;;;;;;5025744;28;20366;-74
2022/09/07 09:30:49;;;;;;;13.82;5.78;;;16.60;99.90;;;;;;5037892;28;20036;-74
2022/09/07 09:33:21;;;;;;;14.65;5.97;;;16.70;99.90;;;;;;5040137;28;20033;-74
2022/09/07 09:35:52;;;;;;;14.65;5.65;;;16.90;99.90;;;;;;5026770;28;20392;-74
2022/09/07 09:38:31;;;;;;;9.82;5.20;;;17.00;99.90;;;;;;5047259;28;20482;-74
2022/09/07 09:41:05;;;;;;;9.85;4.85;;;17.10;99.90;;;;;;5019632;28;20048;-73
2022/09/07 09:43:37;;;;;;;7.70;5.47;;;17.10;99.90;;;;;;5027987;28;20021;-75
2022/09/07 09:46:11;;;;;;;8.65;5.32;;;17.10;99.90;;;;;;5053677;28;20085;-74
2022/09/07 09:48:39;;;;;;;7.80;5.20;;;17.10;99.90;;;;;;5028907;28;20497;-74
2022/09/07 09:51:07;;;;;;;7.25;5.22;;;17.00;99.90;;;;;;5032029;28;20032;-76
2022/09/07 09:53:38;;;;;;;11.90;5.50;;;17.00;99.90;;;;;;5023628;28;20029;-74
2022/09/07 09:56:05;;;;;;;11.50;5.53;;;17.00;99.90;;;;;;5021875;28;20041;-75
2022/09/07 09:58:36;;;;;;;20.77;5.80;;;17.10;99.90;;;;;;5019887;28;20041;-74
2022/09/07 10:01:03;;;;;;;;;;;17.10;99.90;;;;;;5043537;28;20561;-74
2022/09/07 10:03:33;;;;;;;9.15;5.47;;;17.20;99.90;;;;;;5030178;28;20003;-74
2022/09/07 10:06:05;;;;;;;6.13;5.15;;;17.40;99.90;;;;;;5045386;28;20032;-74
2022/09/07 10:08:32;;;;;;;8.18;5.72;;;17.50;99.90;;;;;;5025060;28;20481;-75
2022/09/07 10:11:05;;;;;;;8.90;5.45;;;17.70;99.90;;;;;;5046321;28;20040;-75
2022/09/07 10:13:54;;;;;;;8.30;4.95;;;17.80;99.90;;;;;;5014629;28;20029;-74
2022/09/07 10:16:36;;;;;;;10.98;6.38;;;17.90;99.90;;;;;;5033518;28;20041;-74
2022/09/07 10:19:02;;;;;;;8.63;5.80;;;17.90;99.90;;;;;;5047189;28;20036;-74
2022/09/07 10:21:29;;;;;;;13.10;6.78;;;18.00;99.90;;;;;;5029999;28;20033;-73
2022/09/07 10:24:21;;;;;;;9.40;6.50;;;18.00;99.90;;;;;;5013560;28;20058;-73
2022/09/07 10:26:47;;;;;;;10.73;6.10;;;18.00;99.90;;;;;;5043966;28;20085;-74
2022/09/07 10:29:14;;;;;;;9.52;6.50;;;18.10;99.90;;;;;;5010290;28;20026;-73
2022/09/07 10:31:46;;;;;;;9.40;6.70;;;18.10;99.90;;;;;;5044969;28;20116;-74
2022/09/07 10:34:30;;;;;;;9.65;6.43;;;18.20;99.90;;;;;;5046107;28;20032;-74
2022/09/07 10:37:12;;;;;;;9.68;6.50;;;18.20;99.90;;;;;;5025845;28;20107;-75
2022/09/07 10:39:41;;;;;;;6.25;5.43;;;18.20;99.90;;;;;;5042451;28;20091;-74
2022/09/07 10:42:23;;;;;;;8.85;6.20;;;18.40;99.90;;;;;;5019832;28;20260;-74
2022/09/07 10:45:34;;;;;;;6.60;5.43;;;18.60;99.90;;;;;;5039571;28;20021;-74
2022/09/07 10:48:25;;;;;;;8.63;5.47;;;18.90;99.90;;;;;;5023503;28;20033;-74
2022/09/07 10:50:57;;;;;;;8.45;6.32;;;19.20;99.90;;;;;;5049929;28;20025;-73
2022/09/07 10:53:45;;;;;;;11.75;6.82;;;19.40;99.90;;;;;;5054394;28;20029;-74
2022/09/07 10:56:18;;;;;;;8.95;6.88;;;19.60;99.90;;;;;;5040906;28;20055;-73
2022/09/07 10:58:56;;;;;;;8.07;6.38;;;19.60;99.90;;;;;;5054060;28;20055;-74
2022/09/07 11:01:50;;;;;;;8.75;5.88;;;19.70;99.90;;;;;;5050226;28;20025;-74
2022/09/07 11:04:38;;;;;;;7.45;5.65;;;20.20;99.90;;;;;;5017921;28;20044;-73
2022/09/07 11:07:23;;;;;;;9.57;6.82;;;20.90;99.90;;;;;;5054218;28;20150;-73
2022/09/07 11:10:02;;;;;;;12.95;6.85;;;21.60;99.90;;;;;;5033593;28;20033;-74
2022/09/07 11:12:34;;;;;;;6.57;4.95;;;22.30;99.10;;;;;;5036703;28;20037;-73
2022/09/07 11:15:12;;;;;;;9.13;5.90;;;23.20;97.90;;;;;;5032406;28;20033;-74
2022/09/07 11:17:57;;;;;;;6.70;5.20;;;24.00;96.00;;;;;;5040914;28;20032;-75
2022/09/07 11:20:36;;;;;;;6.78;4.13;;;25.00;94.30;;;;;;5048299;28;20112;-74
2022/09/07 11:23:05;;;;;;;7.18;5.60;;;25.30;92.90;;;;;;5054112;28;20024;-74
2022/09/07 11:25:52;;;;;;;7.22;4.95;;;25.60;92.50;;;;;;5036161;28;20052;-73
2022/09/07 11:28:26;;;;;;;9.13;4.63;;;25.90;91.50;;;;;;5054395;28;20033;-73
2022/09/07 11:30:57;;;;;;;7.18;5.07;;;25.40;91.50;;;;;;5034700;28;20037;-74
2022/09/07 11:33:49;;;;;;;7.43;4.50;;;25.00;91.60;;;;;;5035389;28;20051;-74
2022/09/07 11:36:18;;;;;;;5.50;3.75;;;24.80;91.90;;;;;;5052191;28;20035;-74
2022/09/07 11:38:52;;;;;;;6.93;5.03;;;24.70;92.10;;;;;;5054296;28;20536;-74
2022/09/07 11:41:41;;;;;;;10.20;6.28;;;24.20;92.10;;;;;;5019826;28;20060;-74
2022/09/07 11:44:30;;;;;;;7.53;5.25;;;23.60;92.20;;;;;;5052269;28;20084;-74
2022/09/07 11:47:04;;;;;;;11.70;6.00;;;23.50;93.00;;;;;;5049899;28;20489;-75
2022/09/07 11:49:29;;;;;;;7.55;5.68;;;23.30;92.70;;;;;;5047327;28;20043;-74
2022/09/07 11:52:01;;;;;;;11.10;5.18;;;23.20;93.30;;;;;;5033587;28;20393;-74
2022/09/07 11:54:40;;;;;;;5.20;4.47;;;22.80;93.40;;;;;;5035473;28;20036;-74
2022/09/07 11:57:15;;;;;;;5.90;4.90;;;22.90;93.80;;;;;;5053418;28;20128;-75
2022/09/07 12:00:07;;;;;;;5.78;4.35;;;23.00;94.10;;;;;;5051184;28;20578;-74
2022/09/07 12:03:01;;;;;;;7.85;5.57;;;22.90;94.70;;;;;;5044977;28;20033;-75
2022/09/07 12:05:45;;;;;;;8.90;5.72;;;22.80;94.50;;;;;;5049873;28;20028;-74
2022/09/07 12:08:32;;;;;;;8.10;5.57;;;22.80;94.50;;;;;;5049209;28;20025;-75
2022/09/07 12:11:23;;;;;;;7.18;5.05;;;22.80;95.00;;;;;;5028766;28;20044;-73
2022/09/07 12:14:02;;;;;;;7.15;4.80;;;22.90;94.90;;;;;;5042569;28;20115;-73
2022/09/07 12:16:28;;;;;;;7.57;5.75;;;23.30;94.60;;;;;;5050242;28;20493;-74
2022/09/07 12:19:02;;;;;;;8.00;4.57;;;23.40;94.00;;;;;;5030749;28;20113;-75
2022/09/07 12:21:44;;;;;;;6.00;4.60;;;23.60;93.80;;;;;;5040526;28;20028;-75
2022/09/07 12:24:39;;;;;;;5.97;4.93;;;24.20;94.20;;;;;;5029470;28;20029;-74
2022/09/07 12:27:20;;;;;;;6.50;4.30;;;25.00;92.80;;;;;;5046960;28;20028;-74
2022/09/07 12:29:47;;;;;;;8.55;4.70;;;25.30;92.10;;;;;;5047492;28;20029;-74
2022/09/07 12:32:33;;;;;;;6.07;4.43;;;25.50;90.70;;;;;;5024732;28;20033;-73
2022/09/07 12:35:00;;;;;;;8.02;4.80;;;26.00;90.60;;;;;;5053976;28;20032;-75
2022/09/07 12:37:25;;;;;;;6.75;4.45;;;26.30;88.80;;;;;;5032054;28;20313;-75
2022/09/07 12:40:28;;;;;;;5.93;5.00;;;26.60;87.80;;;;;;5033423;28;20037;-74
2022/09/07 12:43:12;;;;;;;4.60;4.10;;;26.60;88.00;;;;;;5050047;28;20531;-74
2022/09/07 12:45:38;;;;;;;7.30;4.57;;;27.30;85.80;;;;;;5043984;28;20064;-74
2022/09/07 12:48:17;;;;;;;5.70;3.80;;;27.40;84.80;;;;;;5051466;28;20025;-74
2022/09/07 12:51:14;;;;;;;5.53;4.30;;;27.80;82.60;;;;;;5046380;28;20748;-75
2022/09/07 12:54:18;;;;;;;5.65;3.60;;;27.50;82.30;;;;;;5049400;28;20071;-76
2022/09/07 12:56:55;;;;;;;5.75;4.45;;;26.80;83.10;;;;;;5027956;28;20498;-77
2022/09/07 12:59:55;;;;;;;6.85;5.07;;;26.00;86.20;;;;;;5052340;28;20025;-77
2022/09/07 13:02:39;;;;;;;5.85;4.15;;;25.30;88.00;;;;;;5033459;28;20478;-77
2022/09/07 13:05:14;;;;;;;8.50;5.20;;;24.90;89.30;;;;;;5030142;28;20037;-75
2022/09/07 13:08:09;;;;;;;9.05;6.20;;;24.30;90.70;;;;;;5048672;28;20091;-73
2022/09/07 13:10:38;;;;;;;6.78;5.53;;;24.00;91.00;;;;;;5021957;28;20524;-75
2022/09/07 13:13:15;;;;;;;6.47;5.00;;;23.70;91.90;;;;;;5041757;28;20036;-73
2022/09/07 13:15:44;;;;;;;6.60;5.10;;;23.40;92.50;;;;;;5007693;28;20043;-74